ウィーン の空港の天気 - METARとTAF

ウィーン国際空港 ( LOWW / VIE ) - オーストリア ウィーン
飛行場実況気象(Metar)
観測時間02/28 01:20 CET (02/28 00:20 UTC)
風向・風速東南東 3m/s
視程10km以上
天気現象
なし
気温5℃
湿度70%
気圧1002hPa
METARLOWW 280020Z 12005KT CAVOK 05/M00 Q1002 NOSIG
過去の天気等 Google飛行場航空写真 Wunderground天気予報

過去48時間のMETAR

飛行場予報(TAF)
発表時間: 2/28 00:15 CET (2/27 23:15 UTC)
予報対象時間: 28日1時 CET ~ 1日7時 CET
風向・風速南南東 4m/s
視程10km以上
なし
28日9時 CET ~ 28日11時 CET に徐々に
風向・風速西 4m/s
28日14時 CET ~ 28日16時 CET に徐々に
風向・風速南南東 5m/s
28日16時 CET ~ 28日18時 CET に徐々に
風向・風速南 8m/s 瞬間風速 13m/s
28日23時 CET から
風向・風速西 8m/s 瞬間風速 13m/s
視程10km以上
全天の4割程度の雲 雲底高度 1,220m
全天の8割程度の雲 雲底高度 3,050m
28日23時 CET ~ 1日2時 CET に一時的に
風向・風速西 13m/s 瞬間風速 21m/s
天気現象しゅう雨
全天の8割程度の雲 雲底高度 1,220m
1日6時 CET から
風向・風速西 10m/s 瞬間風速 15m/s
視程10km以上
少しの雲 雲底高度 1,520m
TAF LOWW 272315Z 2800/0106 16007KT CAVOK TX13/2812Z TN00/2805Z
BECMG 2808/2810 27008KT
BECMG 2813/2815 16010KT
BECMG 2815/2817 17015G25KT
FM282200 27015G25KT 9999 SCT040 BKN100
TEMPO 2822/0101 28025G40KT SHRA BKN040
FM010500 28020G30KT 9999 FEW050